createdAt,value
2018-03-23T00:01:38.941Z,39.33
2018-03-23T00:04:06.501Z,38.92
2018-03-23T00:06:34.006Z,38.88
2018-03-23T00:09:01.475Z,36.90
2018-03-23T00:11:28.960Z,38.92
2018-03-23T00:13:57.168Z,37.70
2018-03-23T00:16:24.634Z,35.88
2018-03-23T00:18:52.206Z,33.33
2018-03-23T00:21:19.692Z,41.92
2018-03-23T00:23:47.920Z,35.22
2018-03-23T00:26:16.248Z,37.40
2018-03-23T00:28:44.600Z,37.05
2018-03-23T00:31:12.092Z,41.90
2018-03-23T00:33:39.703Z,37.92
2018-03-23T00:36:07.998Z,38.15
2018-03-23T00:38:35.463Z,36.55
2018-03-23T00:41:03.045Z,38.88
2018-03-23T00:43:31.344Z,36.90
2018-03-23T00:45:59.007Z,33.13
2018-03-23T00:48:26.464Z,38.70
2018-03-23T00:50:54.001Z,34.17
2018-03-23T00:53:21.476Z,39.10
2018-03-23T00:55:48.951Z,34.63
2018-03-23T00:58:16.421Z,37.40
2018-03-23T01:00:43.893Z,39.08
2018-03-23T01:03:11.412Z,38.72
2018-03-23T01:05:38.847Z,35.85
2018-03-23T01:08:06.391Z,35.70
2018-03-23T01:10:34.684Z,37.22
2018-03-23T01:13:02.184Z,37.88
2018-03-23T01:15:29.646Z,37.63
2018-03-23T01:17:57.109Z,38.08
2018-03-23T01:20:24.684Z,39.67
2018-03-23T01:22:52.143Z,41.63
2018-03-23T01:25:19.572Z,37.38
2018-03-23T01:27:47.036Z,39.10
2018-03-23T01:30:14.506Z,38.83
2018-03-23T01:32:42.762Z,41.80
2018-03-23T01:35:10.258Z,43.05
2018-03-23T01:37:37.695Z,39.88
2018-03-23T01:40:05.152Z,43.80
2018-03-23T01:42:32.912Z,48.47
2018-03-23T01:45:00.454Z,42.15
2018-03-23T01:47:28.728Z,43.42
2018-03-23T01:49:56.203Z,42.13
2018-03-23T01:52:24.415Z,43.10
2018-03-23T01:54:51.909Z,43.05
2018-03-23T01:57:19.425Z,43.42
2018-03-23T01:59:46.880Z,48.55
2018-03-23T02:02:14.352Z,47.78
2018-03-23T02:04:41.798Z,46.13
2018-03-23T02:07:09.321Z,46.30
2018-03-23T02:09:36.776Z,52.05
2018-03-23T02:12:05.016Z,43.15
2018-03-23T02:14:32.528Z,47.30
2018-03-23T02:17:00.043Z,47.72
2018-03-23T02:19:27.494Z,49.78
2018-03-23T02:21:54.977Z,47.15
2018-03-23T02:24:23.197Z,49.08
2018-03-23T02:26:50.647Z,53.70
2018-03-23T02:29:18.197Z,49.95
2018-03-23T02:31:45.669Z,53.33
2018-03-23T02:34:13.260Z,51.33
2018-03-23T02:36:40.729Z,50.12
2018-03-23T02:39:08.230Z,49.17
2018-03-23T02:41:35.684Z,51.65
2018-03-23T02:44:03.137Z,52.08
2018-03-23T02:46:30.618Z,49.20
2018-03-23T02:48:58.139Z,48.45
2018-03-23T02:51:25.607Z,53.20
2018-03-23T02:53:53.220Z,54.88
2018-03-23T02:56:20.676Z,55.30
2018-03-23T02:58:48.177Z,52.22
2018-03-23T03:01:15.649Z,50.22
2018-03-23T03:03:43.136Z,67.57
2018-03-23T03:06:10.556Z,50.22
2018-03-23T03:08:38.037Z,51.22
2018-03-23T03:11:05.484Z,52.03
2018-03-23T03:13:32.970Z,53.50
2018-03-23T03:16:00.424Z,52.30
2018-03-23T03:18:28.381Z,57.80
2018-03-23T03:20:56.007Z,56.92
2018-03-23T03:23:23.456Z,46.25
2018-03-23T03:25:50.977Z,55.85
2018-03-23T03:28:19.254Z,51.00
2018-03-23T03:30:47.490Z,47.20
2018-03-23T03:33:14.929Z,50.67
2018-03-23T03:35:42.387Z,42.65
2018-03-23T03:38:09.848Z,43.35
2018-03-23T03:40:37.374Z,48.13
2018-03-23T03:43:04.956Z,49.90
2018-03-23T03:45:32.425Z,46.90
2018-03-23T03:47:59.868Z,49.75
2018-03-23T03:50:27.335Z,53.35
2018-03-23T03:52:54.796Z,46.95
2018-03-23T03:55:22.292Z,51.20
2018-03-23T03:57:49.728Z,49.75
2018-03-23T04:00:17.203Z,48.33
2018-03-23T04:02:44.712Z,47.95
2018-03-23T04:05:12.289Z,58.67
2018-03-23T04:07:39.769Z,49.72
2018-03-23T04:10:07.208Z,53.67
2018-03-23T04:12:34.673Z,50.95
2018-03-23T04:15:02.916Z,52.72
2018-03-23T04:17:30.378Z,53.60
2018-03-23T04:19:57.853Z,56.22
2018-03-23T04:22:25.313Z,57.15
2018-03-23T04:24:52.752Z,52.17
2018-03-23T04:27:20.251Z,55.60
2018-03-23T04:29:48.487Z,55.45
2018-03-23T04:32:15.948Z,55.28
2018-03-23T04:34:43.546Z,52.78
2018-03-23T04:37:10.996Z,63.78
2018-03-23T04:39:38.461Z,58.33
2018-03-23T04:42:05.910Z,51.05
2018-03-23T04:44:33.839Z,53.40
2018-03-23T04:47:01.323Z,51.95
2018-03-23T04:49:28.790Z,49.30
2018-03-23T04:51:56.302Z,51.20
2018-03-23T04:54:23.776Z,53.30
2018-03-23T04:56:51.231Z,52.42
2018-03-23T04:59:18.699Z,59.53
2018-03-23T05:01:46.946Z,56.45
2018-03-23T05:04:14.416Z,48.85
2018-03-23T05:06:41.874Z,57.33
2018-03-23T05:09:09.367Z,58.85
2018-03-23T05:11:36.873Z,55.40
2018-03-23T05:14:04.348Z,57.17
2018-03-23T05:16:31.924Z,55.03
2018-03-23T05:19:00.201Z,54.97
2018-03-23T05:21:28.438Z,53.55
2018-03-23T05:23:55.919Z,57.60
2018-03-23T05:26:24.141Z,56.22
2018-03-23T05:28:51.620Z,54.97
2018-03-23T05:31:19.076Z,55.08
2018-03-23T05:33:46.536Z,53.67
2018-03-23T05:36:14.022Z,56.17
2018-03-23T05:38:42.325Z,58.63
2018-03-23T05:41:09.854Z,57.30
2018-03-23T05:43:38.104Z,60.78
2018-03-23T05:46:05.564Z,56.55
2018-03-23T05:48:33.016Z,54.10
2018-03-23T05:51:00.571Z,63.13
2018-03-23T05:53:28.030Z,54.33
2018-03-23T05:55:55.512Z,51.85
2018-03-23T05:58:23.736Z,54.03
2018-03-23T06:00:51.272Z,53.08
2018-03-23T06:05:52.603Z,53.83
2018-03-23T06:08:20.812Z,62.92
2018-03-23T06:10:48.317Z,61.58
2018-03-23T06:13:15.804Z,52.65
2018-03-23T06:15:43.291Z,54.00
2018-03-23T06:18:10.752Z,57.03
2018-03-23T06:20:38.205Z,52.72
2018-03-23T06:23:05.695Z,60.63
2018-03-23T06:25:33.146Z,55.67
2018-03-23T06:28:00.669Z,57.15
2018-03-23T06:30:28.112Z,55.50
2018-03-23T06:32:55.572Z,54.60
2018-03-23T06:35:23.031Z,55.53
2018-03-23T06:37:50.510Z,54.58
2018-03-23T06:40:18.041Z,47.88
2018-03-23T06:42:46.286Z,55.70
2018-03-23T06:45:14.397Z,54.28
2018-03-23T06:47:41.855Z,58.42
2018-03-23T06:50:09.383Z,51.30
2018-03-23T06:52:37.609Z,53.30
2018-03-23T06:55:05.138Z,55.45
2018-03-23T06:57:32.589Z,66.90
2018-03-23T07:00:00.053Z,57.80
2018-03-23T07:02:27.511Z,54.95
2018-03-23T07:04:54.964Z,60.50
2018-03-23T07:07:22.508Z,60.50
2018-03-23T07:09:49.957Z,60.33
2018-03-23T07:12:18.202Z,56.28
2018-03-23T07:14:45.660Z,62.70
2018-03-23T07:17:13.108Z,57.97
2018-03-23T07:19:40.612Z,67.25
2018-03-23T07:22:08.172Z,66.07
2018-03-23T07:24:35.715Z,58.53
2018-03-23T07:27:03.184Z,61.47
2018-03-23T07:29:30.644Z,67.62
2018-03-23T07:31:58.372Z,56.42
2018-03-23T07:34:26.615Z,60.83
2018-03-23T07:36:54.068Z,63.00
2018-03-23T07:39:22.153Z,68.95
2018-03-23T07:41:49.641Z,51.85
2018-03-23T07:44:17.845Z,64.50
2018-03-23T07:46:45.316Z,65.35
2018-03-23T07:49:12.789Z,56.22
2018-03-23T07:51:40.379Z,50.95
2018-03-23T07:54:08.603Z,60.72
2018-03-23T07:56:36.032Z,59.60
2018-03-23T07:59:03.494Z,63.78
2018-03-23T08:01:30.966Z,54.15
2018-03-23T08:03:58.562Z,62.97
2018-03-23T08:06:26.014Z,63.72
2018-03-23T08:08:53.483Z,63.45
2018-03-23T08:11:20.965Z,56.58
2018-03-23T08:13:48.572Z,61.65
2018-03-23T08:16:16.019Z,63.50
2018-03-23T08:18:43.521Z,64.35
2018-03-23T08:21:10.969Z,57.30
2018-03-23T08:23:38.438Z,64.78
2018-03-23T08:26:06.649Z,57.53
2018-03-23T08:28:34.233Z,60.05
2018-03-23T08:31:01.684Z,54.90
2018-03-23T08:33:29.156Z,53.22
2018-03-23T08:35:56.637Z,49.72
2018-03-23T08:38:24.879Z,52.72
2018-03-23T08:40:52.467Z,50.95
2018-03-23T08:43:20.712Z,57.28
2018-03-23T08:45:48.152Z,54.00
2018-03-23T08:48:15.606Z,44.38
2018-03-23T08:50:43.081Z,50.28
2018-03-23T08:53:10.538Z,54.95
2018-03-23T08:55:38.104Z,57.62
2018-03-23T08:58:05.556Z,51.80
2018-03-23T09:00:33.024Z,61.88
2018-03-23T09:03:00.484Z,55.53
2018-03-23T09:05:28.792Z,54.72
2018-03-23T09:07:56.349Z,58.38
2018-03-23T09:10:23.824Z,60.05
2018-03-23T09:12:51.244Z,53.33
2018-03-23T09:15:19.492Z,49.05
2018-03-23T09:17:46.923Z,49.88
2018-03-23T09:20:14.380Z,52.55
2018-03-23T09:22:41.968Z,49.78
2018-03-23T09:25:09.453Z,55.05
2018-03-23T09:27:37.648Z,53.42
2018-03-23T09:30:05.117Z,54.28
2018-03-23T09:32:32.576Z,50.38
2018-03-23T09:35:00.053Z,51.55
2018-03-23T09:37:28.307Z,57.45
2018-03-23T09:39:55.738Z,58.42
2018-03-23T09:42:23.204Z,49.85
2018-03-23T09:44:50.661Z,55.55
2018-03-23T09:47:18.149Z,52.78
2018-03-23T09:49:45.592Z,50.63
2018-03-23T09:52:13.052Z,58.97
2018-03-23T09:54:40.500Z,56.15
2018-03-23T09:57:08.004Z,49.53
2018-03-23T10:04:45.485Z,45.88
2018-03-23T10:07:12.963Z,50.67
2018-03-23T10:09:40.593Z,48.80
2018-03-23T10:12:08.042Z,43.45
2018-03-23T10:14:35.521Z,50.95
2018-03-23T10:17:03.419Z,44.40
2018-03-23T10:19:30.903Z,45.72
2018-03-23T10:21:58.304Z,46.08
2018-03-23T10:24:25.823Z,45.85
2018-03-23T10:26:53.314Z,47.10
2018-03-23T10:29:20.795Z,43.25
2018-03-23T10:31:48.249Z,42.92
2018-03-23T10:34:15.725Z,37.90
2018-03-23T10:36:43.195Z,43.78
2018-03-23T10:39:10.675Z,38.45
2018-03-23T10:41:38.152Z,38.92
2018-03-23T10:44:05.596Z,34.30
2018-03-23T10:46:33.055Z,41.42
2018-03-23T10:49:00.522Z,33.60
2018-03-23T10:51:28.104Z,39.92
2018-03-23T10:53:56.437Z,37.00
2018-03-23T10:56:23.917Z,37.55
2018-03-23T10:58:51.346Z,38.67
2018-03-23T11:01:24.529Z,39.60
2018-03-23T11:03:51.970Z,34.15
2018-03-23T11:06:19.441Z,38.95
2018-03-23T11:08:46.884Z,34.30
2018-03-23T11:11:14.359Z,33.05
2018-03-23T11:13:41.832Z,34.33
2018-03-23T11:16:09.304Z,31.52
2018-03-23T11:18:36.786Z,27.55
2018-03-23T11:21:05.009Z,29.10
2018-03-23T11:23:32.475Z,30.12
2018-03-23T11:25:59.946Z,29.02
2018-03-23T11:28:27.436Z,25.35
2018-03-23T11:30:54.906Z,27.87
2018-03-23T11:33:22.422Z,28.15
2018-03-23T11:35:50.677Z,26.87
2018-03-23T11:38:18.155Z,26.75
2018-03-23T11:40:46.375Z,25.98
2018-03-23T11:43:13.862Z,24.63
2018-03-23T11:45:42.149Z,30.25
2018-03-23T11:48:09.621Z,25.70
2018-03-23T11:50:37.073Z,26.58
2018-03-23T11:53:04.565Z,22.62
2018-03-23T11:55:32.800Z,24.67
2018-03-23T11:58:00.273Z,25.92
2018-03-23T12:00:27.732Z,24.52
2018-03-23T12:02:55.980Z,24.27
2018-03-23T12:05:23.479Z,27.83
2018-03-23T12:07:50.939Z,28.73
2018-03-23T12:10:18.383Z,27.00
2018-03-23T12:12:45.856Z,27.13
2018-03-23T12:15:13.302Z,26.48
2018-03-23T12:17:40.802Z,27.85
2018-03-23T12:20:08.371Z,28.25
2018-03-23T12:22:35.839Z,29.50
2018-03-23T12:25:03.319Z,29.63
2018-03-23T12:27:30.844Z,25.35
2018-03-23T12:29:58.255Z,28.38
2018-03-23T12:32:25.702Z,24.42
2018-03-23T12:34:53.249Z,28.38
2018-03-23T12:37:20.620Z,28.65
2018-03-23T12:39:48.635Z,26.85
2018-03-23T12:42:16.099Z,27.80
2018-03-23T12:44:43.572Z,24.55
2018-03-23T12:47:11.796Z,25.35
2018-03-23T12:49:39.347Z,26.45
2018-03-23T12:52:06.844Z,24.90
2018-03-23T12:54:35.071Z,25.77
2018-03-23T12:57:02.520Z,29.30
2018-03-23T12:59:29.997Z,23.92
2018-03-23T13:01:57.439Z,27.48
2018-03-23T13:04:24.892Z,29.80
2018-03-23T13:06:52.398Z,25.92
2018-03-23T13:09:19.860Z,28.20
2018-03-23T13:11:48.091Z,26.45
2018-03-23T13:14:15.569Z,24.98
2018-03-23T13:16:43.049Z,24.80
2018-03-23T13:19:10.593Z,24.95
2018-03-23T13:21:38.066Z,27.25
2018-03-23T13:24:06.280Z,24.63
2018-03-23T13:26:33.775Z,24.15
2018-03-23T13:29:01.231Z,27.27
2018-03-23T13:31:28.694Z,25.05
2018-03-23T13:33:56.913Z,22.15
2018-03-23T13:36:24.524Z,23.87
2018-03-23T13:38:51.974Z,22.60
2018-03-23T13:41:19.457Z,26.52
2018-03-23T13:43:46.903Z,25.92
2018-03-23T13:46:14.404Z,24.33
2018-03-23T13:48:41.848Z,26.83
2018-03-23T13:51:09.376Z,26.20
2018-03-23T13:53:36.853Z,23.58
2018-03-23T13:56:05.140Z,22.73
2018-03-23T13:58:38.137Z,24.58
2018-03-23T14:01:06.344Z,23.42
2018-03-23T14:03:33.820Z,20.85
2018-03-23T14:06:01.300Z,21.12
2018-03-23T14:08:29.523Z,22.60
2018-03-23T14:10:56.967Z,23.23
2018-03-23T14:13:24.439Z,19.35
2018-03-23T14:15:51.896Z,19.37
2018-03-23T14:18:19.349Z,23.12
2018-03-23T14:20:46.797Z,21.90
2018-03-23T14:23:14.380Z,20.23
2018-03-23T14:25:41.833Z,18.35
2018-03-23T14:28:09.290Z,17.60
2018-03-23T14:30:36.737Z,22.85
2018-03-23T14:33:04.197Z,19.27
2018-03-23T14:35:32.413Z,17.60
2018-03-23T14:38:00.653Z,19.50
2018-03-23T14:40:28.107Z,18.62
2018-03-23T14:42:55.573Z,18.92
2018-03-23T14:45:23.026Z,18.00
2018-03-23T14:47:50.477Z,21.27
2018-03-23T14:50:17.927Z,16.75
2018-03-23T14:52:45.391Z,18.42
2018-03-23T14:55:12.910Z,18.20
2018-03-23T14:57:40.352Z,17.12
2018-03-23T15:00:07.821Z,17.75
2018-03-23T15:02:36.081Z,18.90
2018-03-23T15:05:03.543Z,18.92
2018-03-23T15:07:30.977Z,16.75
2018-03-23T15:09:58.469Z,18.45
2018-03-23T15:12:25.919Z,18.08
2018-03-23T15:14:53.407Z,19.27
2018-03-23T15:17:20.941Z,19.98
2018-03-23T15:19:48.487Z,20.85
2018-03-23T15:22:15.996Z,22.23
2018-03-23T15:24:43.475Z,22.20
2018-03-23T15:27:11.684Z,21.85
2018-03-23T15:29:39.140Z,24.55
2018-03-23T15:32:06.751Z,24.83
2018-03-23T15:34:34.982Z,22.52
2018-03-23T15:37:03.496Z,25.15
2018-03-23T15:39:31.024Z,26.00
2018-03-23T15:41:58.459Z,23.25
2018-03-23T15:44:25.939Z,25.42
2018-03-23T15:46:53.409Z,24.35
2018-03-23T15:49:20.874Z,25.25
2018-03-23T15:51:48.330Z,25.52
2018-03-23T15:54:15.801Z,26.12
2018-03-23T15:56:44.032Z,25.20
2018-03-23T15:59:11.530Z,31.35
2018-03-23T16:01:39.023Z,27.30
2018-03-23T16:04:06.458Z,26.90
2018-03-23T16:06:34.691Z,25.45
2018-03-23T16:09:02.161Z,27.25
2018-03-23T16:11:29.656Z,26.77
2018-03-23T16:13:57.125Z,28.00
2018-03-23T16:16:24.584Z,24.85
2018-03-23T16:18:52.023Z,24.48
2018-03-23T16:21:19.508Z,26.00
2018-03-23T16:23:46.955Z,26.77
2018-03-23T16:26:14.534Z,24.37
2018-03-23T16:28:41.980Z,23.65
2018-03-23T16:31:09.438Z,25.60
2018-03-23T16:33:36.978Z,27.70
2018-03-23T16:36:05.418Z,29.25
2018-03-23T16:38:32.965Z,28.58
2018-03-23T16:41:01.161Z,30.73
2018-03-23T16:43:28.779Z,27.75
2018-03-23T16:45:56.255Z,26.83
2018-03-23T16:48:23.792Z,25.70
2018-03-23T16:50:51.239Z,24.95
2018-03-23T16:53:18.691Z,24.65
2018-03-23T16:55:46.194Z,26.25
2018-03-23T16:58:13.664Z,26.20
2018-03-23T17:00:41.108Z,29.92
2018-03-23T17:03:09.331Z,29.73
2018-03-23T17:05:36.772Z,25.45
2018-03-23T17:08:04.237Z,26.92
2018-03-23T17:10:31.667Z,26.45
2018-03-23T17:12:59.973Z,27.23
2018-03-23T17:15:27.421Z,28.08
2018-03-23T17:17:54.967Z,26.23
2018-03-23T17:20:22.461Z,24.85
2018-03-23T17:22:49.909Z,26.95
2018-03-23T17:25:17.386Z,25.58
2018-03-23T17:27:46.330Z,25.73
2018-03-23T17:30:13.781Z,27.08
2018-03-23T17:32:41.224Z,24.02
2018-03-23T17:35:08.715Z,27.73
2018-03-23T17:37:36.168Z,26.65
2018-03-23T17:40:03.630Z,28.95
2018-03-23T17:42:31.087Z,28.65
2018-03-23T17:44:58.543Z,27.10
2018-03-23T17:47:26.081Z,28.12
2018-03-23T17:49:53.545Z,27.17
2018-03-23T17:52:20.975Z,25.23
2018-03-23T17:54:48.440Z,27.65
2018-03-23T17:57:15.890Z,25.85
2018-03-23T17:59:43.413Z,31.73
2018-03-23T18:02:10.860Z,26.02
2018-03-23T18:04:38.353Z,27.17
2018-03-23T18:07:06.569Z,26.27
2018-03-23T18:09:34.026Z,30.08
2018-03-23T18:12:01.500Z,27.30
2018-03-23T18:14:28.962Z,29.50
2018-03-23T18:16:56.444Z,27.77
2018-03-23T18:19:24.660Z,24.85
2018-03-23T18:21:52.216Z,25.85
2018-03-23T18:24:19.671Z,27.98
2018-03-23T18:26:47.115Z,27.20
2018-03-23T18:29:14.633Z,27.15
2018-03-23T18:31:42.088Z,24.83
2018-03-23T18:34:10.318Z,26.85
2018-03-23T18:36:37.768Z,25.00
2018-03-23T18:39:05.219Z,28.73
2018-03-23T18:41:32.667Z,26.85
2018-03-23T18:44:00.202Z,25.05
2018-03-23T18:46:28.458Z,27.33
2018-03-23T18:48:55.974Z,29.98
2018-03-23T18:51:23.422Z,26.35
2018-03-23T18:53:50.953Z,26.30
2018-03-23T18:56:19.174Z,27.25
2018-03-23T18:58:46.732Z,27.25
2018-03-23T19:01:14.167Z,30.85
2018-03-23T19:03:41.629Z,27.33
2018-03-23T19:06:09.090Z,33.15
2018-03-23T19:08:36.561Z,26.75
2018-03-23T19:11:03.995Z,25.05
2018-03-23T19:13:31.475Z,26.98
2018-03-23T19:15:58.979Z,33.92
2018-03-23T19:18:27.196Z,28.12
2018-03-23T19:20:55.417Z,27.70
2018-03-23T19:23:23.656Z,26.62
2018-03-23T19:25:52.737Z,27.20
2018-03-23T19:28:20.225Z,28.27
2018-03-23T19:30:47.688Z,25.88
2018-03-23T19:33:15.148Z,28.33
2018-03-23T19:35:43.373Z,24.75
2018-03-23T19:38:10.911Z,30.40
2018-03-23T19:40:38.385Z,29.23
2018-03-23T19:43:05.832Z,26.42
2018-03-23T19:45:33.324Z,27.27
2018-03-23T19:48:00.763Z,27.83
2018-03-23T19:50:28.233Z,27.92
2018-03-23T19:52:55.764Z,24.83
2018-03-23T19:55:23.231Z,27.80
2018-03-23T19:57:50.701Z,25.80
2018-03-23T20:00:18.276Z,28.50
2018-03-23T20:02:45.842Z,25.83
2018-03-23T20:05:13.242Z,27.67
2018-03-23T20:07:40.843Z,29.17
2018-03-23T20:10:08.407Z,30.00
2018-03-23T20:12:35.935Z,31.23
2018-03-23T20:15:03.418Z,29.35
2018-03-23T20:17:36.429Z,27.65
2018-03-23T20:20:10.554Z,31.27
2018-03-23T20:22:38.004Z,33.95
2018-03-23T20:25:06.243Z,28.45
2018-03-23T20:27:39.423Z,26.95
2018-03-23T20:30:06.937Z,31.58
2018-03-23T20:32:34.416Z,33.83
2018-03-23T20:35:01.889Z,24.33
2018-03-23T20:37:29.393Z,27.40
2018-03-23T20:39:57.598Z,28.27
2018-03-23T20:42:25.072Z,27.58
2018-03-23T20:44:52.578Z,26.55
2018-03-23T20:47:20.819Z,24.75
2018-03-23T20:49:48.268Z,40.03
2018-03-23T20:52:15.710Z,29.73
2018-03-23T20:54:43.188Z,32.53
2018-03-23T20:57:10.645Z,31.15
2018-03-23T20:59:38.083Z,27.62
2018-03-23T21:02:05.549Z,28.60
2018-03-23T21:04:33.079Z,26.27
2018-03-23T21:07:01.153Z,27.87
2018-03-23T21:09:28.613Z,25.40
2018-03-23T21:11:56.058Z,27.80
2018-03-23T21:14:23.587Z,26.15
2018-03-23T21:16:51.834Z,28.80
2018-03-23T21:19:20.217Z,29.87
2018-03-23T21:21:47.647Z,25.85
2018-03-23T21:24:15.100Z,25.80
2018-03-23T21:26:42.589Z,26.00
2018-03-23T21:29:10.069Z,26.98
2018-03-23T21:31:38.275Z,25.05
2018-03-23T21:34:05.732Z,24.20
2018-03-23T21:36:33.191Z,24.42
2018-03-23T21:39:00.653Z,26.92
2018-03-23T21:41:28.093Z,27.25
2018-03-23T21:43:55.560Z,23.33
2018-03-23T21:46:23.025Z,25.50
2018-03-23T21:48:50.512Z,24.50
2018-03-23T21:51:17.944Z,24.70
2018-03-23T21:53:45.456Z,26.55
2018-03-23T21:56:12.900Z,23.50
2018-03-23T21:58:41.136Z,22.42
2018-03-23T22:01:09.428Z,26.80
2018-03-23T22:03:36.999Z,25.42
2018-03-23T22:06:05.236Z,31.55
2018-03-23T22:08:32.681Z,29.37
2018-03-23T22:11:00.150Z,25.52
2018-03-23T22:13:27.645Z,27.20
2018-03-23T22:15:55.067Z,25.62
2018-03-23T22:18:22.539Z,30.17
2018-03-23T22:20:50.785Z,28.67
2018-03-23T22:23:18.247Z,23.87
2018-03-23T22:25:46.458Z,33.13
2018-03-23T22:28:14.685Z,29.30
2018-03-23T22:30:42.162Z,26.33
2018-03-23T22:33:09.600Z,30.23
2018-03-23T22:35:37.063Z,27.37
2018-03-23T22:38:04.583Z,25.77
2018-03-23T22:40:32.064Z,24.77
2018-03-23T22:42:59.507Z,29.20
2018-03-23T22:45:27.002Z,28.90
2018-03-23T22:47:54.489Z,28.45
2018-03-23T22:50:22.784Z,26.77
2018-03-23T22:52:50.298Z,33.22
2018-03-23T22:55:17.755Z,28.45
2018-03-23T22:57:46.801Z,32.80
2018-03-23T23:00:14.223Z,30.33
2018-03-23T23:02:41.699Z,32.22
2018-03-23T23:05:09.147Z,31.17
2018-03-23T23:07:36.677Z,33.00
2018-03-23T23:10:04.944Z,31.60
2018-03-23T23:12:32.833Z,30.90
2018-03-23T23:15:00.361Z,30.37
2018-03-23T23:17:27.822Z,30.55
2018-03-23T23:19:56.291Z,30.65
2018-03-23T23:22:23.770Z,32.55
2018-03-23T23:24:51.247Z,31.35
2018-03-23T23:27:19.455Z,32.53
2018-03-23T23:29:46.943Z,32.42
2018-03-23T23:32:14.393Z,30.48
2018-03-23T23:34:41.848Z,31.23
2018-03-23T23:37:09.363Z,32.65
2018-03-23T23:39:36.824Z,30.48
2018-03-23T23:42:04.291Z,32.00
2018-03-23T23:44:31.763Z,33.55
2018-03-23T23:46:59.208Z,27.83
2018-03-23T23:49:26.677Z,32.70
2018-03-23T23:51:54.108Z,31.58
2018-03-23T23:54:21.563Z,34.00
2018-03-23T23:56:49.045Z,34.03
2018-03-23T23:59:16.529Z,36.55
